createdAt,value
2017-11-15T00:00:52.951Z,88.09
2017-11-15T00:02:03.080Z,88.85
2017-11-15T00:03:13.192Z,88.56
2017-11-15T00:04:23.363Z,88.66
2017-11-15T00:05:33.518Z,88.56
2017-11-15T00:06:43.420Z,88.56
2017-11-15T00:07:53.539Z,88.66
2017-11-15T00:09:02.793Z,88.75
2017-11-15T00:10:13.000Z,88.75
2017-11-15T00:11:22.923Z,88.37
2017-11-15T00:12:33.042Z,88.56
2017-11-15T00:13:43.384Z,88.66
2017-11-15T00:14:53.543Z,88.66
2017-11-15T00:16:03.414Z,88.56
2017-11-15T00:17:13.562Z,88.56
2017-11-15T00:18:23.680Z,88.66
2017-11-15T00:19:33.845Z,88.56
2017-11-15T00:20:44.008Z,88.75
2017-11-15T00:21:54.127Z,88.75
2017-11-15T00:23:03.978Z,88.85
2017-11-15T00:24:14.137Z,88.75
2017-11-15T00:25:24.305Z,88.46
2017-11-15T00:26:34.695Z,88.37
2017-11-15T00:27:44.834Z,88.37
2017-11-15T00:28:54.739Z,88.66
2017-11-15T00:30:04.921Z,88.37
2017-11-15T00:31:14.812Z,88.56
2017-11-15T00:32:24.483Z,88.18
2017-11-15T00:33:34.940Z,88.85
2017-11-15T00:34:45.373Z,88.75
2017-11-15T00:35:55.474Z,88.28
2017-11-15T00:37:05.603Z,88.66
2017-11-15T00:38:15.736Z,88.85
2017-11-15T00:39:25.989Z,88.75
2017-11-15T00:40:36.242Z,88.75
2017-11-15T00:41:45.946Z,88.56
2017-11-15T00:42:56.279Z,88.66
2017-11-15T00:44:06.438Z,88.56
2017-11-15T00:45:16.586Z,88.75
2017-11-15T00:46:26.727Z,88.56
2017-11-15T00:47:36.854Z,88.66
2017-11-15T00:48:46.988Z,88.66
2017-11-15T00:49:57.143Z,88.28
2017-11-15T00:51:06.997Z,88.56
2017-11-15T00:52:17.102Z,88.56
2017-11-15T00:53:27.439Z,88.75
2017-11-15T00:54:37.325Z,88.56
2017-11-15T00:55:47.689Z,88.66
2017-11-15T00:56:57.562Z,88.66
2017-11-15T00:58:07.689Z,88.66
2017-11-15T00:59:17.888Z,88.56
2017-11-15T01:00:28.105Z,88.66
2017-11-15T01:01:38.247Z,88.56
2017-11-15T01:02:48.146Z,88.56
2017-11-15T01:03:58.332Z,88.56
2017-11-15T01:05:08.180Z,88.56
2017-11-15T01:06:18.348Z,88.75
2017-11-15T01:07:28.174Z,88.46
2017-11-15T01:08:38.288Z,88.46
2017-11-15T01:09:48.407Z,88.66
2017-11-15T01:10:58.268Z,88.56
2017-11-15T01:12:08.492Z,88.46
2017-11-15T01:13:18.272Z,88.56
2017-11-15T01:14:28.390Z,88.56
2017-11-15T01:15:38.515Z,88.56
2017-11-15T01:16:48.012Z,88.37
2017-11-15T01:17:58.381Z,88.56
2017-11-15T01:19:08.490Z,88.94
2017-11-15T01:20:18.082Z,88.46
2017-11-15T01:21:28.198Z,88.85
2017-11-15T01:22:38.330Z,88.46
2017-11-15T01:23:48.753Z,88.56
2017-11-15T01:24:58.942Z,88.28
2017-11-15T01:26:09.111Z,88.66
2017-11-15T01:27:18.586Z,89.23
2017-11-15T01:28:28.700Z,89.23
2017-11-15T01:29:38.839Z,88.75
2017-11-15T01:30:48.706Z,89.04
2017-11-15T01:31:58.810Z,88.56
2017-11-15T01:33:08.528Z,88.18
2017-11-15T01:34:18.384Z,88.66
2017-11-15T01:35:28.505Z,88.71
2017-11-15T01:36:38.616Z,89.18
2017-11-15T01:37:48.484Z,89.28
2017-11-15T01:38:58.664Z,89.18
2017-11-15T01:40:08.858Z,89.18
2017-11-15T01:41:18.727Z,89.18
2017-11-15T01:42:28.877Z,89.56
2017-11-15T01:43:39.025Z,89.37
2017-11-15T01:44:49.398Z,89.66
2017-11-15T01:45:59.527Z,89.75
2017-11-15T01:47:09.383Z,89.47
2017-11-15T01:48:19.332Z,89.66
2017-11-15T01:49:29.507Z,89.47
2017-11-15T01:50:39.756Z,89.47
2017-11-15T01:51:49.927Z,90.04
2017-11-15T01:53:00.066Z,89.75
2017-11-15T01:54:10.028Z,90.23
2017-11-15T01:55:20.603Z,89.85
2017-11-15T01:56:30.713Z,90.52
2017-11-15T01:57:40.578Z,90.33
2017-11-15T01:58:50.462Z,90.42
2017-11-15T02:00:00.107Z,90.04
2017-11-15T02:01:09.968Z,90.52
2017-11-15T02:02:19.799Z,90.42
2017-11-15T02:03:29.889Z,90.8
2017-11-15T02:04:40.038Z,91.18
2017-11-15T02:05:50.159Z,90.7
2017-11-15T02:07:00.269Z,90.8
2017-11-15T02:08:10.153Z,90.99
2017-11-15T02:09:20.342Z,90.99
2017-11-15T02:10:30.471Z,90.99
2017-11-15T02:11:40.627Z,90.8
2017-11-15T02:12:50.927Z,91.18
2017-11-15T02:14:00.694Z,91.18
2017-11-15T02:15:10.282Z,91.28
2017-11-15T02:16:20.452Z,91.18
2017-11-15T02:17:30.570Z,90.99
2017-11-15T02:18:40.696Z,91.28
2017-11-15T02:19:50.798Z,91.18
2017-11-15T02:21:00.735Z,91.18
2017-11-15T02:22:10.467Z,91.47
2017-11-15T02:23:20.325Z,91.28
2017-11-15T02:24:30.437Z,91.28
2017-11-15T02:25:40.639Z,91.28
2017-11-15T02:26:50.913Z,91.7
2017-11-15T02:28:00.793Z,91.37
2017-11-15T02:29:10.919Z,91.56
2017-11-15T02:30:20.693Z,90.61
2017-11-15T02:31:30.963Z,91.28
2017-11-15T02:32:40.825Z,91.37
2017-11-15T02:33:50.618Z,91.28
2017-11-15T02:35:00.354Z,91.51
2017-11-15T02:36:09.735Z,91.7
2017-11-15T02:37:19.601Z,91.42
2017-11-15T02:38:29.492Z,91.28
2017-11-15T02:39:39.378Z,91.22
2017-11-15T02:40:48.985Z,91.42
2017-11-15T02:41:58.764Z,91.42
2017-11-15T02:43:08.874Z,91.22
2017-11-15T02:44:18.465Z,91.22
2017-11-15T02:45:28.308Z,91.22
2017-11-15T02:46:38.431Z,91.22
2017-11-15T02:47:48.570Z,91.22
2017-11-15T02:48:58.686Z,91.32
2017-11-15T02:50:08.365Z,91.51
2017-11-15T02:51:18.239Z,91.61
2017-11-15T02:52:28.432Z,90.94
2017-11-15T02:53:38.576Z,90.84
2017-11-15T02:54:48.438Z,91.03
2017-11-15T02:55:58.610Z,91.03
2017-11-15T02:57:08.878Z,90.84
2017-11-15T02:58:19.145Z,91.13
2017-11-15T02:59:29.009Z,90.75
2017-11-15T03:00:39.120Z,90.84
2017-11-15T03:01:49.248Z,90.94
2017-11-15T03:02:59.143Z,90.75
2017-11-15T03:04:09.027Z,90.84
2017-11-15T03:05:18.910Z,90.84
2017-11-15T03:06:28.800Z,91.03
2017-11-15T03:07:38.990Z,90.94
2017-11-15T03:08:48.832Z,91.03
2017-11-15T03:09:58.966Z,90.84
2017-11-15T03:11:09.122Z,90.84
2017-11-15T03:12:18.986Z,90.84
2017-11-15T03:13:29.101Z,90.94
2017-11-15T03:14:38.974Z,90.94
2017-11-15T03:15:48.948Z,90.84
2017-11-15T03:16:59.050Z,90.75
2017-11-15T03:18:08.992Z,90.66
2017-11-15T03:19:19.201Z,90.94
2017-11-15T03:20:29.062Z,90.28
2017-11-15T03:21:39.198Z,90.28
2017-11-15T03:22:49.304Z,90.28
2017-11-15T03:23:59.151Z,90.56
2017-11-15T03:25:09.024Z,90.56
2017-11-15T03:26:19.011Z,90.66
2017-11-15T03:27:28.540Z,90.47
2017-11-15T03:28:38.664Z,90.47
2017-11-15T03:29:48.813Z,90.28
2017-11-15T03:30:58.945Z,90.56
2017-11-15T03:32:09.071Z,90.08
2017-11-15T03:33:19.226Z,90.56
2017-11-15T03:34:29.324Z,90.28
2017-11-15T03:35:38.909Z,90.37
2017-11-15T03:36:48.780Z,90.28
2017-11-15T03:37:58.966Z,90.28
2017-11-15T03:39:08.897Z,90.37
2017-11-15T03:40:19.021Z,90.37
2017-11-15T03:41:29.148Z,90.08
2017-11-15T03:42:38.989Z,90.37
2017-11-15T03:43:48.842Z,90.37
2017-11-15T03:44:59.199Z,90.28
2017-11-15T03:46:09.395Z,89.89
2017-11-15T03:47:19.544Z,90.28
2017-11-15T03:48:29.664Z,90.28
2017-11-15T03:49:39.788Z,90.56
2017-11-15T03:50:49.897Z,90.28
2017-11-15T03:52:00.044Z,90.28
2017-11-15T03:53:10.216Z,90.47
2017-11-15T03:54:19.836Z,89.99
2017-11-15T03:55:29.742Z,89.99
2017-11-15T03:56:39.961Z,89.99
2017-11-15T03:57:50.147Z,90.08
2017-11-15T03:59:00.317Z,90.08
2017-11-15T04:00:10.164Z,90.08
2017-11-15T04:01:20.320Z,90.08
2017-11-15T04:02:30.455Z,90.08
2017-11-15T04:03:40.612Z,90.08
2017-11-15T04:04:50.748Z,89.89
2017-11-15T04:06:00.871Z,90.08
2017-11-15T04:07:11.021Z,90.08
2017-11-15T04:08:20.877Z,90.08
2017-11-15T04:09:30.996Z,90.08
2017-11-15T04:10:41.113Z,90.08
2017-11-15T04:11:51.016Z,89.8
2017-11-15T04:13:01.186Z,89.61
2017-11-15T04:14:11.349Z,89.99
2017-11-15T04:15:21.479Z,90.08
2017-11-15T04:16:31.751Z,89.51
2017-11-15T04:17:41.884Z,89.7
2017-11-15T04:18:52.029Z,89.99
2017-11-15T04:20:02.141Z,90.08
2017-11-15T04:21:12.278Z,90.28
2017-11-15T04:22:22.329Z,89.99
2017-11-15T04:23:32.526Z,89.8
2017-11-15T04:24:42.419Z,89.99
2017-11-15T04:25:52.537Z,90.28
2017-11-15T04:27:02.130Z,89.99
2017-11-15T04:28:11.884Z,89.89
2017-11-15T04:29:21.985Z,89.99
2017-11-15T04:30:31.802Z,89.89
2017-11-15T04:31:41.649Z,90.28
2017-11-15T04:32:51.867Z,90.37
2017-11-15T04:34:01.993Z,90.08
2017-11-15T04:35:12.147Z,89.99
2017-11-15T04:36:22.246Z,90.37
2017-11-15T04:37:32.171Z,90.08
2017-11-15T04:38:42.033Z,90.28
2017-11-15T04:39:52.239Z,90.47
2017-11-15T04:41:02.130Z,89.8
2017-11-15T04:42:12.024Z,90.08
2017-11-15T04:43:22.155Z,90.18
2017-11-15T04:44:32.276Z,90.08
2017-11-15T04:45:42.115Z,90.08
2017-11-15T04:46:51.963Z,90.18
2017-11-15T04:48:02.082Z,90.18
2017-11-15T04:49:11.702Z,90.37
2017-11-15T04:50:21.900Z,90.37
2017-11-15T04:51:32.027Z,90.08
2017-11-15T04:52:41.909Z,90.18
2017-11-15T04:53:51.656Z,90.18
2017-11-15T04:55:01.509Z,90.08
2017-11-15T04:56:11.360Z,90.08
2017-11-15T04:57:21.458Z,89.89
2017-11-15T04:58:31.052Z,89.99
2017-11-15T04:59:40.964Z,89.89
2017-11-15T05:00:51.085Z,89.99
2017-11-15T05:02:01.179Z,90.08
2017-11-15T05:03:11.355Z,89.99
2017-11-15T05:04:21.217Z,89.99
2017-11-15T05:05:31.080Z,89.89
2017-11-15T05:06:41.179Z,89.8
2017-11-15T05:07:51.346Z,90.08
2017-11-15T05:09:01.576Z,89.89
2017-11-15T05:10:11.369Z,90.08
2017-11-15T05:11:21.532Z,89.8
2017-11-15T05:12:31.668Z,90.08
2017-11-15T05:13:41.856Z,90.08
2017-11-15T05:14:52.043Z,89.94
2017-11-15T05:16:02.267Z,89.8
2017-11-15T05:17:12.146Z,89.8
2017-11-15T05:18:22.285Z,89.89
2017-11-15T05:19:32.143Z,89.89
2017-11-15T05:20:42.287Z,90.18
2017-11-15T05:21:52.622Z,90.28
2017-11-15T05:23:02.255Z,90.18
2017-11-15T05:24:12.376Z,90.04
2017-11-15T05:25:22.238Z,90.28
2017-11-15T05:26:32.207Z,90.28
2017-11-15T05:27:42.320Z,89.75
2017-11-15T05:28:52.460Z,90.23
2017-11-15T05:30:02.451Z,90.42
2017-11-15T05:31:12.328Z,90.33
2017-11-15T05:32:22.481Z,90.37
2017-11-15T05:33:32.762Z,90.47
2017-11-15T05:34:42.997Z,90.18
2017-11-15T05:35:53.123Z,90.7
2017-11-15T05:37:03.272Z,90.08
2017-11-15T05:38:13.424Z,90.37
2017-11-15T05:39:23.380Z,89.99
2017-11-15T05:40:33.555Z,90.08
2017-11-15T05:41:43.486Z,90.08
2017-11-15T05:42:53.348Z,90.08
2017-11-15T05:44:03.415Z,90.56
2017-11-15T05:45:13.661Z,90.47
2017-11-15T05:46:23.800Z,90.28
2017-11-15T05:47:33.974Z,90.28
2017-11-15T05:48:44.122Z,90.37
2017-11-15T05:49:54.294Z,90.84
2017-11-15T05:51:03.562Z,90.18
2017-11-15T05:52:13.677Z,90.66
2017-11-15T05:53:23.825Z,90.37
2017-11-15T05:54:33.937Z,90.56
2017-11-15T05:55:43.821Z,90.66
2017-11-15T05:56:53.788Z,90.37
2017-11-15T05:58:04.023Z,90.08
2017-11-15T05:59:14.191Z,90.08
2017-11-15T06:00:24.361Z,90.28
2017-11-15T06:01:34.653Z,90.56
2017-11-15T06:02:44.508Z,90.08
2017-11-15T06:03:53.802Z,90.47
2017-11-15T06:05:03.964Z,90.42
2017-11-15T06:06:13.781Z,90.61
2017-11-15T06:07:23.894Z,90.89
2017-11-15T06:08:34.158Z,90.8
2017-11-15T06:09:44.447Z,90.7
2017-11-15T06:10:54.329Z,90.89
2017-11-15T06:12:04.085Z,90.94
2017-11-15T06:13:14.129Z,90.89
2017-11-15T06:14:24.580Z,90.8
2017-11-15T06:15:35.086Z,90.89
2017-11-15T06:16:45.435Z,91.18
2017-11-15T06:17:56.130Z,90.8
2017-11-15T06:19:06.477Z,90.8
2017-11-15T06:20:17.250Z,90.99
2017-11-15T06:21:27.408Z,90.89
2017-11-15T06:22:36.901Z,90.8
2017-11-15T06:23:47.457Z,91.61
2017-11-15T06:24:57.535Z,91.32
2017-11-15T06:26:07.626Z,90.94
2017-11-15T06:27:18.053Z,90.75
2017-11-15T06:28:28.683Z,90.75
2017-11-15T06:29:38.505Z,91.61
2017-11-15T06:30:49.362Z,90.56
2017-11-15T06:31:59.987Z,91.7
2017-11-15T06:33:10.410Z,91.61
2017-11-15T06:34:20.863Z,91.32
2017-11-15T06:35:31.016Z,91.61
2017-11-15T06:36:41.393Z,91.22
2017-11-15T06:37:51.316Z,91.61
2017-11-15T06:39:01.454Z,90.56
2017-11-15T06:40:11.230Z,90.94
2017-11-15T06:41:21.364Z,90.84
2017-11-15T06:42:31.543Z,90.94
2017-11-15T06:43:41.732Z,90.94
2017-11-15T06:44:52.134Z,90.84
2017-11-15T06:46:02.261Z,91.42
2017-11-15T06:47:12.373Z,91.61
2017-11-15T06:48:22.492Z,91.61
2017-11-15T06:49:32.652Z,91.42
2017-11-15T06:50:42.713Z,91.32
2017-11-15T06:51:52.873Z,91.22
2017-11-15T06:53:02.632Z,91.42
2017-11-15T06:54:12.519Z,91.18
2017-11-15T06:55:22.845Z,91.08
2017-11-15T06:56:33.019Z,91.37
2017-11-15T06:57:43.188Z,91.37
2017-11-15T06:58:53.045Z,91.18
2017-11-15T07:00:03.256Z,91.22
2017-11-15T07:01:13.358Z,91.13
2017-11-15T07:02:23.124Z,91.89
2017-11-15T07:03:33.242Z,91.89
2017-11-15T07:04:43.358Z,91.89
2017-11-15T07:05:53.483Z,91.99
2017-11-15T07:07:03.585Z,91.99
2017-11-15T07:08:13.944Z,91.99
2017-11-15T07:09:23.858Z,91.89
2017-11-15T07:10:33.955Z,91.99
2017-11-15T07:11:43.551Z,91.22
2017-11-15T07:12:53.447Z,91.32
2017-11-15T07:14:03.305Z,91.42
2017-11-15T07:15:13.220Z,91.22
2017-11-15T07:16:23.489Z,91.13
2017-11-15T07:17:33.091Z,91.42
2017-11-15T07:18:42.970Z,91.42
2017-11-15T07:19:53.121Z,91.42
2017-11-15T07:21:02.738Z,91.22
2017-11-15T07:22:12.911Z,91.22
2017-11-15T07:23:23.057Z,91.32
2017-11-15T07:24:33.202Z,91.7
2017-11-15T07:25:43.386Z,91.22
2017-11-15T07:26:53.246Z,91.32
2017-11-15T07:28:03.149Z,91.61
2017-11-15T07:29:13.532Z,91.61
2017-11-15T07:30:23.781Z,91.42
2017-11-15T07:31:34.049Z,91.7
2017-11-15T07:32:43.652Z,91.32
2017-11-15T07:33:53.518Z,91.51
2017-11-15T07:35:03.690Z,90.84
2017-11-15T07:36:13.858Z,91.03
2017-11-15T07:37:23.491Z,90.75
2017-11-15T07:38:33.670Z,90.75
2017-11-15T07:39:43.814Z,90.84
2017-11-15T07:40:53.798Z,90.75
2017-11-15T07:42:04.070Z,90.75
2017-11-15T07:43:14.193Z,91.13
2017-11-15T07:44:24.387Z,91.13
2017-11-15T07:45:34.459Z,90.75
2017-11-15T07:46:44.575Z,91.13
2017-11-15T07:47:54.377Z,90.94
2017-11-15T07:49:03.962Z,90.8
2017-11-15T07:50:13.816Z,90.94
2017-11-15T07:51:23.924Z,90.56
2017-11-15T07:52:33.767Z,90.47
2017-11-15T07:53:43.656Z,90.51
2017-11-15T07:54:53.552Z,90.56
2017-11-15T07:56:03.793Z,90.28
2017-11-15T07:57:13.675Z,90.51
2017-11-15T07:58:23.549Z,90.51
2017-11-15T07:59:33.301Z,90.28
2017-11-15T08:00:43.412Z,90.47
2017-11-15T08:01:53.534Z,90.28
2017-11-15T08:03:03.678Z,90.56
2017-11-15T08:04:13.793Z,90.28
2017-11-15T08:05:23.676Z,90.18
2017-11-15T08:06:33.803Z,90.37
2017-11-15T08:07:44.094Z,89.99
2017-11-15T08:08:53.727Z,89.99
2017-11-15T08:10:03.829Z,90.18
2017-11-15T08:11:13.717Z,89.99
2017-11-15T08:12:24.054Z,90.66
2017-11-15T08:13:34.217Z,90.47
2017-11-15T08:14:43.706Z,90.18
2017-11-15T08:15:53.367Z,90.47
2017-11-15T08:17:03.490Z,90.08
2017-11-15T08:18:13.609Z,90.66
2017-11-15T08:19:23.738Z,89.99
2017-11-15T08:20:33.860Z,89.99
2017-11-15T08:21:43.961Z,90.47
2017-11-15T08:22:53.594Z,90.51
2017-11-15T08:24:03.109Z,90.28
2017-11-15T08:25:13.059Z,90.47
2017-11-15T08:26:22.823Z,90.08
2017-11-15T08:27:32.935Z,90.47
2017-11-15T08:28:43.048Z,89.99
2017-11-15T08:29:52.901Z,90.28
2017-11-15T08:31:02.783Z,90.28
2017-11-15T08:32:12.651Z,89.89
2017-11-15T08:33:22.576Z,90.37
2017-11-15T08:34:32.713Z,90.28
2017-11-15T08:35:42.315Z,89.99
2017-11-15T08:36:52.666Z,90.18
2017-11-15T08:38:01.990Z,90.56
2017-11-15T08:39:11.603Z,90.66
2017-11-15T08:40:21.484Z,90.18
2017-11-15T08:41:31.680Z,90.56
2017-11-15T08:42:42.064Z,90.47
2017-11-15T08:43:51.661Z,90.37
2017-11-15T08:45:01.534Z,90.37
2017-11-15T08:46:11.378Z,90.37
2017-11-15T08:47:21.493Z,90.66
2017-11-15T08:48:31.260Z,90.75
2017-11-15T08:49:41.159Z,91.03
2017-11-15T08:50:51.301Z,90.75
2017-11-15T08:52:00.949Z,91.03
2017-11-15T08:53:11.087Z,90.84
2017-11-15T08:54:21.232Z,91.03
2017-11-15T08:55:31.429Z,91.32
2017-11-15T08:56:41.680Z,91.32
2017-11-15T08:57:51.847Z,91.42
2017-11-15T08:59:02.233Z,91.42
2017-11-15T09:00:12.361Z,91.22
2017-11-15T09:01:22.499Z,91.42
2017-11-15T09:02:32.740Z,91.89
2017-11-15T09:03:42.867Z,91.99
2017-11-15T09:04:52.436Z,91.8
2017-11-15T09:06:02.549Z,92.08
2017-11-15T09:07:12.713Z,91.8
2017-11-15T09:08:22.941Z,91.7
2017-11-15T09:09:33.105Z,92.36
2017-11-15T09:10:42.983Z,92.27
2017-11-15T09:11:52.853Z,91.99
2017-11-15T09:13:02.636Z,91.8
2017-11-15T09:14:12.495Z,92.08
2017-11-15T09:15:22.433Z,92.08
2017-11-15T09:16:32.553Z,91.89
2017-11-15T09:17:42.718Z,92.65
2017-11-15T09:18:52.633Z,92.56
2017-11-15T09:20:02.735Z,92.65
2017-11-15T09:21:12.925Z,92.46
2017-11-15T09:22:23.352Z,92.36
2017-11-15T09:23:32.589Z,92.46
2017-11-15T09:24:42.511Z,92.13
2017-11-15T09:25:52.664Z,92.65
2017-11-15T09:27:02.551Z,92.89
2017-11-15T09:28:12.772Z,92.32
2017-11-15T09:29:22.942Z,92.32
2017-11-15T09:30:32.831Z,92.32
2017-11-15T09:31:42.972Z,92.7
2017-11-15T09:32:52.839Z,91.94
2017-11-15T09:34:02.952Z,92.32
2017-11-15T09:35:13.086Z,92.41
2017-11-15T09:36:23.238Z,91.99
2017-11-15T09:37:33.161Z,91.7
2017-11-15T09:38:43.327Z,91.79
2017-11-15T09:39:53.468Z,91.89
2017-11-15T09:41:03.630Z,91.6
2017-11-15T09:42:13.420Z,92.08
2017-11-15T09:43:23.533Z,91.79
2017-11-15T09:44:33.649Z,91.7
2017-11-15T09:45:43.577Z,91.99
2017-11-15T09:46:53.769Z,91.79
2017-11-15T09:48:03.898Z,91.89
2017-11-15T09:49:13.714Z,92.08
2017-11-15T09:50:23.891Z,91.22
2017-11-15T09:51:33.987Z,91.22
2017-11-15T09:52:44.112Z,91.41
2017-11-15T09:53:53.790Z,91.41
2017-11-15T09:55:03.643Z,91.31
2017-11-15T09:56:13.503Z,91.03
2017-11-15T09:57:23.497Z,91.27
2017-11-15T09:58:33.163Z,91.41
2017-11-15T09:59:43.069Z,91.41
2017-11-15T10:00:53.192Z,91.51
2017-11-15T10:02:03.309Z,91.99
2017-11-15T10:03:13.458Z,91.6
2017-11-15T10:04:23.233Z,91.99
2017-11-15T10:05:33.487Z,91.7
2017-11-15T10:06:43.695Z,91.6
2017-11-15T10:07:53.583Z,91.7
2017-11-15T10:09:03.736Z,91.7
2017-11-15T10:10:13.490Z,92.18
2017-11-15T10:11:23.113Z,91.31
2017-11-15T10:12:33.305Z,91.31
2017-11-15T10:13:43.315Z,91.41
2017-11-15T10:14:53.169Z,91.41
2017-11-15T10:16:03.290Z,91.31
2017-11-15T10:17:13.436Z,91.41
2017-11-15T10:18:23.361Z,91.41
2017-11-15T10:19:33.535Z,91.31
2017-11-15T10:20:43.427Z,91.13
2017-11-15T10:21:53.205Z,91.03
2017-11-15T10:23:03.375Z,91.13
2017-11-15T10:24:13.704Z,91.03
2017-11-15T10:25:23.580Z,91.51
2017-11-15T10:26:33.756Z,91.41
2017-11-15T10:27:43.852Z,91.51
2017-11-15T10:28:54.033Z,91.99
2017-11-15T10:30:04.142Z,91.13
2017-11-15T10:31:14.278Z,91.22
2017-11-15T10:32:24.433Z,91.46
2017-11-15T10:33:34.503Z,90.84
2017-11-15T10:34:44.683Z,90.98
2017-11-15T10:35:54.580Z,91.55
2017-11-15T10:37:04.093Z,90.6
2017-11-15T10:38:13.967Z,91.08
2017-11-15T10:39:24.086Z,90.65
2017-11-15T10:41:06.155Z,91.03
2017-11-15T10:42:16.019Z,90.84
2017-11-15T10:43:25.788Z,91.08
2017-11-15T10:44:35.606Z,91.27
2017-11-15T10:45:45.762Z,91.08
2017-11-15T10:46:55.878Z,91.27
2017-11-15T10:48:05.473Z,91.08
2017-11-15T10:49:15.684Z,90.89
2017-11-15T10:50:25.888Z,91.08
2017-11-15T10:51:36.058Z,91.08
2017-11-15T10:52:46.376Z,91.13
2017-11-15T10:53:56.177Z,90.45
2017-11-15T10:55:06.070Z,90.17
2017-11-15T10:56:15.965Z,90.45
2017-11-15T10:57:26.289Z,90.26
2017-11-15T10:58:36.173Z,90.55
2017-11-15T10:59:46.396Z,89.98
2017-11-15T11:00:56.568Z,90.08
2017-11-15T11:02:06.538Z,90.36
2017-11-15T11:03:16.706Z,90.36
2017-11-15T11:04:26.600Z,90.08
2017-11-15T11:05:36.452Z,89.98
2017-11-15T11:06:46.599Z,90.08
2017-11-15T11:07:56.754Z,89.89
2017-11-15T11:09:06.947Z,89.89
2017-11-15T11:10:17.561Z,89.98
2017-11-15T11:11:27.504Z,90.17
2017-11-15T11:12:37.716Z,90.45
2017-11-15T11:13:47.585Z,90.26
2017-11-15T11:14:57.493Z,90.26
2017-11-15T11:16:07.868Z,90.26
2017-11-15T11:17:18.095Z,90.08
2017-11-15T11:18:27.718Z,90.08
2017-11-15T11:19:37.614Z,90.74
2017-11-15T11:20:47.808Z,90.26
2017-11-15T11:21:57.946Z,90.26
2017-11-15T11:23:08.124Z,90.55
2017-11-15T11:24:17.998Z,90.26
2017-11-15T11:25:28.128Z,90.55
2017-11-15T11:26:38.263Z,90.08
2017-11-15T11:27:48.593Z,90.45
2017-11-15T11:28:58.774Z,90.93
2017-11-15T11:30:08.980Z,90.5
2017-11-15T11:31:18.908Z,90.45
2017-11-15T11:32:29.054Z,90.64
2017-11-15T11:33:39.187Z,90.45
2017-11-15T11:34:49.378Z,90.45
2017-11-15T11:35:59.574Z,90.55
2017-11-15T11:37:09.824Z,90.64
2017-11-15T11:38:19.777Z,90.7
2017-11-15T11:39:29.961Z,90.45
2017-11-15T11:40:39.581Z,90.55
2017-11-15T11:41:50.012Z,90.45
2017-11-15T11:42:59.893Z,90.74
2017-11-15T11:44:10.009Z,90.84
2017-11-15T11:45:19.777Z,90.64
2017-11-15T11:46:29.542Z,90.55
2017-11-15T11:47:39.874Z,90.45
2017-11-15T11:48:50.051Z,90.84
2017-11-15T11:49:59.921Z,90.36
2017-11-15T11:51:09.796Z,90.08
2017-11-15T11:52:19.932Z,89.89
2017-11-15T11:53:29.804Z,90.08
2017-11-15T11:54:39.923Z,90.17
2017-11-15T11:55:49.794Z,90.08
2017-11-15T11:56:59.940Z,90.08
2017-11-15T11:58:09.595Z,89.89
2017-11-15T11:59:19.509Z,90.26
2017-11-15T12:00:29.661Z,90.26
2017-11-15T12:01:39.832Z,90.26
2017-11-15T12:02:49.709Z,89.89
2017-11-15T12:03:59.495Z,89.89
2017-11-15T12:05:09.248Z,90.17
2017-11-15T12:06:19.430Z,89.98
2017-11-15T12:07:29.217Z,90.17
2017-11-15T12:08:39.442Z,90.17
2017-11-15T12:09:49.610Z,90.26
2017-11-15T12:10:59.818Z,90.26
2017-11-15T12:12:09.712Z,90.08
2017-11-15T12:13:19.905Z,89.98
2017-11-15T12:14:30.086Z,89.98
2017-11-15T12:15:40.295Z,90.17
2017-11-15T12:16:50.424Z,90.17
2017-11-15T12:18:00.554Z,90.26
2017-11-15T12:19:10.693Z,90.45
2017-11-15T12:20:20.824Z,89.98
2017-11-15T12:21:30.716Z,89.98
2017-11-15T12:22:40.865Z,89.98
2017-11-15T12:23:50.472Z,90.17
2017-11-15T12:24:59.863Z,89.98
2017-11-15T12:26:09.740Z,90.17
2017-11-15T12:27:20.041Z,90.08
2017-11-15T12:28:29.913Z,90.08
2017-11-15T12:29:39.792Z,90.08
2017-11-15T12:30:49.424Z,90.26
2017-11-15T12:31:59.285Z,90.08
2017-11-15T12:33:09.192Z,89.89
2017-11-15T12:34:19.091Z,90.08
2017-11-15T12:35:28.718Z,90.26
2017-11-15T12:36:38.980Z,90.17
2017-11-15T12:37:48.891Z,89.98
2017-11-15T12:38:59.059Z,90.08
2017-11-15T12:40:09.201Z,90.17
2017-11-15T12:41:19.348Z,90.08
2017-11-15T12:42:29.552Z,90.26
2017-11-15T12:43:40.022Z,90.26
2017-11-15T12:44:50.178Z,90.08
2017-11-15T12:46:00.439Z,90.08
2017-11-15T12:47:10.589Z,90.17
2017-11-15T12:48:20.833Z,89.98
2017-11-15T12:49:30.992Z,89.98
2017-11-15T12:50:41.205Z,90.26
2017-11-15T12:51:51.349Z,90.26
2017-11-15T12:53:01.579Z,90.17
2017-11-15T12:54:11.454Z,90.26
2017-11-15T12:55:21.315Z,90.26
2017-11-15T12:56:31.070Z,90.26
2017-11-15T12:57:41.245Z,90.26
2017-11-15T12:58:51.375Z,90.08
2017-11-15T13:00:01.491Z,90.17
2017-11-15T13:01:11.698Z,90.17
2017-11-15T13:02:21.850Z,89.98
2017-11-15T13:03:31.990Z,90.26
2017-11-15T13:04:41.783Z,89.98
2017-11-15T13:05:52.135Z,90.08
2017-11-15T13:07:01.936Z,90.08
2017-11-15T13:08:11.537Z,90.08
2017-11-15T13:09:21.768Z,90.26
2017-11-15T13:10:31.992Z,89.98
2017-11-15T13:11:41.611Z,89.89
2017-11-15T13:13:23.711Z,89.89
2017-11-15T13:14:33.919Z,90.08
2017-11-15T13:15:43.567Z,90.17
2017-11-15T13:16:53.422Z,90.08
2017-11-15T13:18:03.289Z,89.98
2017-11-15T13:19:13.432Z,90.08
2017-11-15T13:20:23.318Z,90.08
2017-11-15T13:21:32.879Z,90.26
2017-11-15T13:22:42.502Z,90.26
2017-11-15T13:23:52.412Z,89.89
2017-11-15T13:25:02.289Z,90.08
2017-11-15T13:26:12.419Z,89.89
2017-11-15T13:27:22.587Z,89.89
2017-11-15T13:28:32.368Z,89.89
2017-11-15T13:29:42.517Z,89.98
2017-11-15T13:30:52.382Z,90.26
2017-11-15T13:32:02.507Z,90.26
2017-11-15T13:33:12.421Z,90.08
2017-11-15T13:34:22.294Z,90.08
2017-11-15T13:35:32.158Z,90.08
2017-11-15T13:36:42.445Z,89.89
2017-11-15T13:37:52.236Z,89.98
2017-11-15T13:39:02.380Z,90.08
2017-11-15T13:40:12.516Z,90.08
2017-11-15T13:41:22.885Z,90.08
2017-11-15T13:42:32.675Z,90.26
2017-11-15T13:43:42.708Z,90.17
2017-11-15T13:44:53.039Z,89.98
2017-11-15T13:46:03.242Z,89.98
2017-11-15T13:47:13.134Z,90.26
2017-11-15T13:48:23.269Z,90.08
2017-11-15T13:49:33.040Z,89.98
2017-11-15T13:50:43.202Z,90.17
2017-11-15T13:51:53.081Z,90.08
2017-11-15T13:53:02.982Z,90.08
2017-11-15T13:54:13.116Z,89.98
2017-11-15T13:55:23.416Z,89.89
2017-11-15T13:56:33.585Z,90.17
2017-11-15T13:57:43.765Z,90.17
2017-11-15T13:58:54.103Z,90.17
2017-11-15T14:00:03.943Z,90.08
2017-11-15T14:01:14.088Z,90.08
2017-11-15T14:02:23.975Z,90.26
2017-11-15T14:03:34.303Z,90.08
2017-11-15T14:04:44.443Z,90.26
2017-11-15T14:05:53.961Z,90.26
2017-11-15T14:07:03.835Z,89.89
2017-11-15T14:08:13.968Z,90.08
2017-11-15T14:09:23.570Z,89.89
2017-11-15T14:10:33.470Z,89.98
2017-11-15T14:11:43.628Z,89.89
2017-11-15T14:12:53.408Z,89.98
2017-11-15T14:14:03.305Z,90.64
2017-11-15T14:15:13.007Z,90.55
2017-11-15T14:16:21.991Z,90.45
2017-11-15T14:17:32.178Z,90.45
2017-11-15T14:18:42.503Z,90.36
2017-11-15T14:19:52.777Z,90.45
2017-11-15T14:21:02.947Z,90.45
2017-11-15T14:22:12.823Z,90.45
2017-11-15T14:23:22.676Z,90.17
2017-11-15T14:24:32.664Z,90.26
2017-11-15T14:25:42.902Z,90.55
2017-11-15T14:26:52.823Z,90.45
2017-11-15T14:28:02.969Z,90.36
2017-11-15T14:29:12.934Z,90.26
2017-11-15T14:30:23.229Z,90.36
2017-11-15T14:31:33.374Z,90.64
2017-11-15T14:32:43.563Z,90.45
2017-11-15T14:33:53.754Z,90.36
2017-11-15T14:35:03.609Z,90.45
2017-11-15T14:36:13.488Z,90.45
2017-11-15T14:37:23.605Z,90.36
2017-11-15T14:38:33.207Z,90.26
2017-11-15T14:39:43.378Z,90.26
2017-11-15T14:40:53.015Z,90.08
2017-11-15T14:42:02.922Z,90.26
2017-11-15T14:43:12.791Z,90.36
2017-11-15T14:44:22.682Z,90.17
2017-11-15T14:45:32.862Z,90.08
2017-11-15T14:46:42.987Z,90.08
2017-11-15T14:47:53.127Z,90.08
2017-11-15T14:49:02.743Z,90.08
2017-11-15T14:50:13.076Z,89.89
2017-11-15T14:51:23.001Z,89.98
2017-11-15T14:52:32.972Z,89.98
2017-11-15T14:53:43.107Z,90.26
2017-11-15T14:54:52.967Z,90.08
2017-11-15T14:56:03.121Z,90.26
2017-11-15T14:57:12.755Z,89.98
2017-11-15T14:58:22.869Z,89.6
2017-11-15T14:59:33.010Z,89.79
2017-11-15T15:00:43.038Z,90.08
2017-11-15T15:01:53.185Z,89.98
2017-11-15T15:03:02.942Z,90.08
2017-11-15T15:04:12.798Z,89.89
2017-11-15T15:05:23.156Z,90.26